createdAt,value
2023-04-07T00:00:49.851Z,10.57
2023-04-07T00:03:51.408Z,10.82
2023-04-07T00:06:53.102Z,11.18
2023-04-07T00:09:54.511Z,11.90
2023-04-07T00:12:55.905Z,10.77
2023-04-07T00:15:57.364Z,10.95
2023-04-07T00:18:58.844Z,11.60
2023-04-07T00:22:00.239Z,11.27
2023-04-07T00:25:01.667Z,12.70
2023-04-07T00:28:03.222Z,11.50
2023-04-07T00:31:04.773Z,12.43
2023-04-07T00:34:06.229Z,11.48
2023-04-07T00:37:07.686Z,11.50
2023-04-07T00:40:09.554Z,12.00
2023-04-07T00:43:10.968Z,10.00
2023-04-07T00:46:12.567Z,10.02
2023-04-07T00:49:15.865Z,10.82
2023-04-07T00:52:17.555Z,11.15
2023-04-07T00:55:19.045Z,10.90
2023-04-07T00:58:20.577Z,11.27
2023-04-07T01:01:26.284Z,10.07
2023-04-07T01:04:45.108Z,10.75
2023-04-07T01:08:04.653Z,10.50
2023-04-07T01:11:13.051Z,10.32
2023-04-07T01:14:18.630Z,10.60
2023-04-07T01:17:26.854Z,9.85
2023-04-07T01:20:32.663Z,11.23
2023-04-07T01:24:14.273Z,10.93
2023-04-07T01:27:51.518Z,10.95
2023-04-07T01:30:56.694Z,9.95
2023-04-07T01:34:00.131Z,11.30
2023-04-07T01:37:02.624Z,10.65
2023-04-07T01:40:08.661Z,10.60
2023-04-07T01:43:11.671Z,11.57
2023-04-07T01:46:13.993Z,11.50
2023-04-07T01:49:15.826Z,10.27
2023-04-07T01:52:17.693Z,11.13
2023-04-07T01:55:19.374Z,10.55
2023-04-07T01:58:30.225Z,11.18
2023-04-07T02:01:32.708Z,10.68
2023-04-07T02:04:44.816Z,11.15
2023-04-07T02:07:53.731Z,10.90
2023-04-07T02:10:58.047Z,11.82
2023-04-07T02:14:01.361Z,10.88
2023-04-07T02:17:06.000Z,11.00
2023-04-07T02:20:09.695Z,11.93
2023-04-07T02:23:13.011Z,9.77
2023-04-07T02:26:14.613Z,10.65
2023-04-07T02:29:16.112Z,10.70
2023-04-07T02:32:18.138Z,10.68
2023-04-07T02:35:19.786Z,10.63
2023-04-07T02:38:21.272Z,10.32
2023-04-07T02:41:22.835Z,10.85
2023-04-07T02:44:24.317Z,10.90
2023-04-07T02:47:25.829Z,10.38
2023-04-07T02:50:27.276Z,10.73
2023-04-07T02:53:28.732Z,9.90
2023-04-07T02:56:30.185Z,9.80
2023-04-07T02:59:31.688Z,10.52
2023-04-07T03:02:34.074Z,10.05
2023-04-07T03:05:35.778Z,9.82
2023-04-07T03:08:38.610Z,9.52
2023-04-07T03:11:40.454Z,9.35
2023-04-07T03:14:42.318Z,9.55
2023-04-07T03:17:44.752Z,9.75
2023-04-07T03:20:48.291Z,8.90
2023-04-07T03:23:51.295Z,9.02
2023-04-07T03:26:53.209Z,9.20
2023-04-07T03:30:02.117Z,8.52
2023-04-07T03:33:04.741Z,8.30
2023-04-07T03:36:07.251Z,8.57
2023-04-07T03:39:09.357Z,8.40
2023-04-07T03:42:10.778Z,8.27
2023-04-07T03:45:12.450Z,8.13
2023-04-07T03:48:18.122Z,8.25
2023-04-07T03:51:30.754Z,8.25
2023-04-07T03:54:33.826Z,8.82
2023-04-07T03:57:35.829Z,8.52
2023-04-07T04:00:37.906Z,7.85
2023-04-07T04:03:43.439Z,8.63
2023-04-07T04:07:02.444Z,8.05
2023-04-07T04:10:29.868Z,8.05
2023-04-07T04:13:32.862Z,8.13
2023-04-07T04:16:38.466Z,9.48
2023-04-07T04:19:48.660Z,7.85
2023-04-07T04:22:57.813Z,8.52
2023-04-07T04:26:00.058Z,7.68
2023-04-07T04:29:02.532Z,8.77
2023-04-07T04:32:04.749Z,8.05
2023-04-07T04:35:06.913Z,8.10
2023-04-07T04:38:14.076Z,7.00
2023-04-07T04:41:20.368Z,7.25
2023-04-07T04:44:23.648Z,8.25
2023-04-07T04:50:28.760Z,6.97
2023-04-07T04:53:31.082Z,7.18
2023-04-07T04:56:35.511Z,7.13
2023-04-07T04:59:38.132Z,6.87
2023-04-07T05:02:40.539Z,7.40
2023-04-07T05:05:42.654Z,6.68
2023-04-07T05:08:44.489Z,7.47
2023-04-07T05:11:47.189Z,7.23
2023-04-07T05:14:49.424Z,7.05
2023-04-07T05:17:50.992Z,7.57
2023-04-07T05:20:57.760Z,7.25
2023-04-07T05:24:01.383Z,6.82
2023-04-07T05:27:02.897Z,7.10
2023-04-07T05:30:06.596Z,6.85
2023-04-07T05:33:09.732Z,6.88
2023-04-07T05:36:17.133Z,7.15
2023-04-07T05:39:18.657Z,6.82
2023-04-07T05:42:21.914Z,6.65
2023-04-07T05:45:26.659Z,6.70
2023-04-07T05:48:29.102Z,6.63
2023-04-07T05:51:30.657Z,6.93
2023-04-07T05:54:34.365Z,6.40
2023-04-07T05:57:38.136Z,6.75
2023-04-07T06:00:41.160Z,6.80
2023-04-07T06:03:48.428Z,6.70
2023-04-07T06:06:54.550Z,6.20
2023-04-07T06:09:56.067Z,6.13
2023-04-07T06:12:57.460Z,5.43
2023-04-07T06:15:58.962Z,6.38
2023-04-07T06:19:01.067Z,6.32
2023-04-07T06:22:04.096Z,6.50
2023-04-07T06:25:06.509Z,5.88
2023-04-07T06:28:07.998Z,6.63
2023-04-07T06:31:09.700Z,5.57
2023-04-07T06:34:12.227Z,6.65
2023-04-07T06:37:13.917Z,6.72
2023-04-07T06:40:15.371Z,6.25
2023-04-07T06:43:16.820Z,6.32
2023-04-07T06:46:25.413Z,6.13
2023-04-07T06:49:26.856Z,6.22
2023-04-07T06:52:29.161Z,6.15
2023-04-07T06:55:30.561Z,6.15
2023-04-07T06:58:32.054Z,6.25
2023-04-07T07:01:33.981Z,6.15
2023-04-07T07:04:35.612Z,6.20
2023-04-07T07:07:37.564Z,5.50
2023-04-07T07:10:39.013Z,5.80
2023-04-07T07:13:40.399Z,5.78
2023-04-07T07:16:41.794Z,6.18
2023-04-07T07:19:43.210Z,6.13
2023-04-07T07:22:44.667Z,5.50
2023-04-07T07:25:46.110Z,5.80
2023-04-07T07:28:47.543Z,5.72
2023-04-07T07:31:48.982Z,5.93
2023-04-07T07:34:50.400Z,6.60
2023-04-07T07:37:52.375Z,5.35
2023-04-07T07:40:53.858Z,6.28
2023-04-07T07:43:55.242Z,6.07
2023-04-07T07:46:56.672Z,5.65
2023-04-07T07:49:58.170Z,6.53
2023-04-07T07:52:59.561Z,5.97
2023-04-07T07:56:01.141Z,6.60
2023-04-07T07:59:04.733Z,6.45
2023-04-07T08:02:07.174Z,5.85
2023-04-07T08:05:08.819Z,5.47
2023-04-07T08:08:10.270Z,6.30
2023-04-07T08:11:11.732Z,6.38
2023-04-07T08:14:13.170Z,6.00
2023-04-07T08:17:14.608Z,5.38
2023-04-07T08:20:16.039Z,5.90
2023-04-07T08:23:17.501Z,5.43
2023-04-07T08:26:18.914Z,5.30
2023-04-07T08:29:20.362Z,5.30
2023-04-07T08:32:21.790Z,5.60
2023-04-07T08:35:23.555Z,5.57
2023-04-07T08:38:25.030Z,5.47
2023-04-07T08:41:40.174Z,5.45
2023-04-07T08:44:42.006Z,5.53
2023-04-07T08:47:46.487Z,6.60
2023-04-07T08:50:51.526Z,6.45
2023-04-07T08:53:54.056Z,5.97
2023-04-07T08:56:55.920Z,5.57
2023-04-07T08:59:59.358Z,5.72
2023-04-07T09:03:01.822Z,6.13
2023-04-07T09:06:04.080Z,5.47
2023-04-07T09:09:05.628Z,5.63
2023-04-07T09:12:07.069Z,5.13
2023-04-07T09:15:08.694Z,4.80
2023-04-07T09:18:10.246Z,5.32
2023-04-07T09:21:12.623Z,4.82
2023-04-07T09:24:41.898Z,5.60
2023-04-07T09:28:01.603Z,5.57
2023-04-07T09:31:03.045Z,5.30
2023-04-07T09:34:23.962Z,5.05
2023-04-07T09:37:25.386Z,5.20
2023-04-07T09:40:26.866Z,4.60
2023-04-07T09:43:28.338Z,5.03
2023-04-07T09:46:29.890Z,5.00
2023-04-07T09:49:31.410Z,5.07
2023-04-07T09:52:49.973Z,5.25
2023-04-07T09:55:52.123Z,5.10
2023-04-07T09:58:53.563Z,4.88
2023-04-07T10:01:56.765Z,5.00
2023-04-07T10:05:00.217Z,5.20
2023-04-07T10:08:01.824Z,4.60
2023-04-07T10:11:04.716Z,5.95
2023-04-07T10:14:06.374Z,5.25
2023-04-07T10:17:08.236Z,4.97
2023-04-07T10:20:10.343Z,5.55
2023-04-07T10:23:22.294Z,4.82
2023-04-07T10:26:29.453Z,5.97
2023-04-07T10:29:37.051Z,5.35
2023-04-07T10:32:49.289Z,5.68
2023-04-07T10:36:06.896Z,6.38
2023-04-07T10:39:08.256Z,6.00
2023-04-07T10:42:37.574Z,5.22
2023-04-07T10:45:48.270Z,5.85
2023-04-07T10:49:09.078Z,5.95
2023-04-07T10:52:13.906Z,5.40
2023-04-07T10:55:54.521Z,5.45
2023-04-07T10:59:14.697Z,6.03
2023-04-07T11:02:25.288Z,5.10
2023-04-07T11:05:26.876Z,4.88
2023-04-07T11:08:37.943Z,5.38
2023-04-07T11:11:41.076Z,5.47
2023-04-07T11:14:42.521Z,5.90
2023-04-07T11:17:44.013Z,6.38
2023-04-07T11:20:55.907Z,4.68
2023-04-07T11:23:57.346Z,3.70
2023-04-07T11:26:58.752Z,3.80
2023-04-07T11:30:00.521Z,4.43
2023-04-07T11:33:02.315Z,3.95
2023-04-07T11:36:04.066Z,4.32
2023-04-07T11:39:05.917Z,3.88
2023-04-07T11:42:07.380Z,4.00
2023-04-07T11:45:18.986Z,4.07
2023-04-07T11:48:30.492Z,4.35
2023-04-07T11:51:31.990Z,4.13
2023-04-07T11:54:43.155Z,4.82
2023-04-07T11:57:44.691Z,5.47
2023-04-07T12:00:56.278Z,5.60
2023-04-07T12:04:03.269Z,4.28
2023-04-07T12:07:10.112Z,4.30
2023-04-07T12:10:21.882Z,4.47
2023-04-07T12:13:23.304Z,5.20
2023-04-07T12:16:25.259Z,5.30
2023-04-07T12:19:27.669Z,5.28
2023-04-07T12:22:29.129Z,4.97
2023-04-07T12:25:30.520Z,5.43
2023-04-07T12:28:31.917Z,5.38
2023-04-07T12:31:33.782Z,5.15
2023-04-07T12:34:35.210Z,5.50
2023-04-07T12:37:36.690Z,5.43
2023-04-07T12:40:38.121Z,4.28
2023-04-07T12:43:39.535Z,5.35
2023-04-07T12:46:40.984Z,5.07
2023-04-07T12:49:42.390Z,4.55
2023-04-07T12:52:43.806Z,4.40
2023-04-07T12:55:45.273Z,4.80
2023-04-07T12:58:46.682Z,3.78
2023-04-07T13:01:50.270Z,3.78
2023-04-07T13:04:52.505Z,3.53
2023-04-07T13:07:53.906Z,5.30
2023-04-07T13:10:56.244Z,5.35
2023-04-07T13:13:59.787Z,4.00
2023-04-07T13:17:02.735Z,4.65
2023-04-07T13:20:05.925Z,4.07
2023-04-07T13:23:09.704Z,4.38
2023-04-07T13:26:11.719Z,4.38
2023-04-07T13:29:13.194Z,4.00
2023-04-07T13:32:14.603Z,3.67
2023-04-07T13:35:19.036Z,4.15
2023-04-07T13:38:20.419Z,3.60
2023-04-07T13:41:21.847Z,3.05
2023-04-07T13:44:24.226Z,3.28
2023-04-07T13:47:25.693Z,2.70
2023-04-07T13:50:27.290Z,2.92
2023-04-07T13:53:28.718Z,3.30
2023-04-07T13:56:30.126Z,3.05
2023-04-07T13:59:31.707Z,3.00
2023-04-07T14:02:33.213Z,2.63
2023-04-07T14:05:34.675Z,2.35
2023-04-07T14:08:36.066Z,2.72
2023-04-07T14:11:37.429Z,3.00
2023-04-07T14:14:38.842Z,2.53
2023-04-07T14:17:40.352Z,2.80
2023-04-07T14:20:41.746Z,2.70
2023-04-07T14:23:43.278Z,2.45
2023-04-07T14:26:45.086Z,2.35
2023-04-07T14:29:47.966Z,2.33
2023-04-07T14:32:49.461Z,2.28
2023-04-07T14:35:50.935Z,2.15
2023-04-07T14:38:52.332Z,1.98
2023-04-07T14:41:53.749Z,2.72
2023-04-07T14:44:55.401Z,2.80
2023-04-07T14:47:56.818Z,2.88
2023-04-07T14:51:08.736Z,2.50
2023-04-07T14:54:10.996Z,3.65
2023-04-07T14:57:12.424Z,2.90
2023-04-07T15:00:14.446Z,3.05
2023-04-07T15:03:15.968Z,3.45
2023-04-07T15:06:19.866Z,3.25
2023-04-07T15:09:21.338Z,2.80
2023-04-07T15:12:22.789Z,2.70
2023-04-07T15:15:24.330Z,2.75
2023-04-07T15:18:25.807Z,3.40
2023-04-07T15:21:27.310Z,2.95
2023-04-07T15:24:28.704Z,3.03
2023-04-07T15:27:30.189Z,3.65
2023-04-07T15:30:31.629Z,3.35
2023-04-07T15:33:33.057Z,3.80
2023-04-07T15:36:34.438Z,3.75
2023-04-07T15:39:35.876Z,4.72
2023-04-07T15:42:37.263Z,3.88
2023-04-07T15:45:42.996Z,4.22
2023-04-07T15:48:44.377Z,3.65
2023-04-07T15:51:46.216Z,3.85
2023-04-07T15:54:47.619Z,3.63
2023-04-07T15:57:49.049Z,4.07
2023-04-07T16:00:50.547Z,4.05
2023-04-07T16:03:52.272Z,4.13
2023-04-07T16:06:53.899Z,4.35
2023-04-07T16:09:55.334Z,5.40
2023-04-07T16:12:56.717Z,7.18
2023-04-07T16:15:58.376Z,7.30
2023-04-07T16:18:59.840Z,6.90
2023-04-07T16:22:01.309Z,6.68
2023-04-07T16:25:02.725Z,8.27
2023-04-07T16:28:04.330Z,9.30
2023-04-07T16:31:05.777Z,6.97
2023-04-07T16:34:07.282Z,4.90
2023-04-07T16:37:08.688Z,7.00
2023-04-07T16:40:10.696Z,6.03
2023-04-07T16:43:12.107Z,6.30
2023-04-07T16:46:13.531Z,4.97
2023-04-07T16:49:14.948Z,4.78
2023-04-07T16:52:16.686Z,4.15
2023-04-07T16:55:19.004Z,4.50
2023-04-07T16:58:20.392Z,4.80
2023-04-07T17:01:21.836Z,4.70
2023-04-07T17:04:23.409Z,4.82
2023-04-07T17:07:24.930Z,4.82
2023-04-07T17:10:26.350Z,4.45
2023-04-07T17:13:27.769Z,4.55
2023-04-07T17:16:29.327Z,4.63
2023-04-07T17:19:30.763Z,4.60
2023-04-07T17:22:32.154Z,4.60
2023-04-07T17:25:33.606Z,4.90
2023-04-07T17:28:34.999Z,4.72
2023-04-07T17:31:36.569Z,5.28
2023-04-07T17:34:38.108Z,4.93
2023-04-07T17:37:39.534Z,4.60
2023-04-07T17:40:41.026Z,4.88
2023-04-07T17:43:42.443Z,4.32
2023-04-07T17:46:43.921Z,4.45
2023-04-07T17:49:45.386Z,4.38
2023-04-07T17:52:46.816Z,3.85
2023-04-07T17:55:49.049Z,4.38
2023-04-07T17:58:50.460Z,4.10
2023-04-07T18:01:52.015Z,3.65
2023-04-07T18:04:53.577Z,4.03
2023-04-07T18:07:55.042Z,3.95
2023-04-07T18:10:56.484Z,3.88
2023-04-07T18:13:57.991Z,4.60
2023-04-07T18:16:59.437Z,4.45
2023-04-07T18:20:00.838Z,4.88
2023-04-07T18:23:02.339Z,5.53
2023-04-07T18:26:04.674Z,4.47
2023-04-07T18:29:07.280Z,6.47
2023-04-07T18:32:10.322Z,7.22
2023-04-07T18:35:11.765Z,7.95
2023-04-07T18:38:13.187Z,8.15
2023-04-07T18:41:14.642Z,7.95
2023-04-07T18:44:16.108Z,7.00
2023-04-07T18:47:17.530Z,8.00
2023-04-07T18:50:18.983Z,7.43
2023-04-07T18:53:21.562Z,7.40
2023-04-07T18:56:23.080Z,6.40
2023-04-07T18:59:24.844Z,6.35
2023-04-07T19:02:26.463Z,6.53
2023-04-07T19:05:27.967Z,6.30
2023-04-07T19:08:29.355Z,6.53
2023-04-07T19:11:30.857Z,7.63
2023-04-07T19:14:32.284Z,9.40
2023-04-07T19:17:33.880Z,9.57
2023-04-07T19:20:35.331Z,9.68
2023-04-07T19:23:36.768Z,9.93
2023-04-07T19:26:38.241Z,10.25
2023-04-07T19:29:39.680Z,9.25
2023-04-07T19:32:41.251Z,10.77
2023-04-07T19:35:42.767Z,9.65
2023-04-07T19:38:44.231Z,10.65
2023-04-07T19:41:45.677Z,10.27
2023-04-07T19:44:47.087Z,10.10
2023-04-07T19:47:48.611Z,11.52
2023-04-07T19:50:50.093Z,9.80
2023-04-07T19:53:51.695Z,10.38
2023-04-07T19:56:53.842Z,10.32
2023-04-07T19:59:55.288Z,9.52
2023-04-07T20:02:56.931Z,9.45
2023-04-07T20:05:58.485Z,9.90
2023-04-07T20:08:59.908Z,9.10
2023-04-07T20:12:01.330Z,9.70
2023-04-07T20:15:02.834Z,9.00
2023-04-07T20:18:04.276Z,8.95
2023-04-07T20:21:05.778Z,8.73
2023-04-07T20:24:07.235Z,8.95
2023-04-07T20:27:08.666Z,9.82
2023-04-07T20:30:10.257Z,9.60
2023-04-07T20:33:11.675Z,8.65
2023-04-07T20:36:13.186Z,8.45
2023-04-07T20:39:15.333Z,7.57
2023-04-07T20:42:16.783Z,7.43
2023-04-07T20:45:18.412Z,7.05
2023-04-07T20:48:20.078Z,7.20
2023-04-07T20:51:21.481Z,7.20
2023-04-07T20:54:23.212Z,7.35
2023-04-07T20:57:24.981Z,7.00
2023-04-07T21:00:26.500Z,5.80
2023-04-07T21:03:28.868Z,5.97
2023-04-07T21:06:30.456Z,6.17
2023-04-07T21:09:31.833Z,6.18
2023-04-07T21:12:33.236Z,5.72
2023-04-07T21:15:34.632Z,5.72
2023-04-07T21:18:36.152Z,6.38
2023-04-07T21:21:37.603Z,6.35
2023-04-07T21:24:39.469Z,4.88
2023-04-07T21:27:40.883Z,6.20
2023-04-07T21:30:42.378Z,5.95
2023-04-07T21:33:43.780Z,6.97
2023-04-07T21:36:45.162Z,6.82
2023-04-07T21:39:46.568Z,7.40
2023-04-07T21:42:47.962Z,8.20
2023-04-07T21:45:49.447Z,7.97
2023-04-07T21:48:50.974Z,9.05
2023-04-07T21:51:52.412Z,9.02
2023-04-07T21:54:53.816Z,9.55
2023-04-07T21:57:55.325Z,10.02
2023-04-07T22:00:56.701Z,9.85
2023-04-07T22:03:58.167Z,10.10
2023-04-07T22:06:59.589Z,11.07
2023-04-07T22:10:01.047Z,11.07
2023-04-07T22:13:02.453Z,12.25
2023-04-07T22:16:03.953Z,12.00
2023-04-07T22:19:05.367Z,12.30
2023-04-07T22:22:06.772Z,12.35
2023-04-07T22:25:08.655Z,14.02
2023-04-07T22:28:10.155Z,11.68
2023-04-07T22:31:11.579Z,13.48
2023-04-07T22:34:12.962Z,12.65
2023-04-07T22:37:14.388Z,13.55
2023-04-07T22:40:15.793Z,13.50
2023-04-07T22:43:17.216Z,13.82
2023-04-07T22:46:18.690Z,13.88
2023-04-07T22:49:20.242Z,14.27
2023-04-07T22:52:21.673Z,12.82
2023-04-07T22:55:23.070Z,13.77
2023-04-07T22:58:24.530Z,13.93
2023-04-07T23:01:25.932Z,12.07
2023-04-07T23:04:27.422Z,14.02
2023-04-07T23:07:28.860Z,12.43
2023-04-07T23:10:31.821Z,12.82
2023-04-07T23:13:33.214Z,13.40
2023-04-07T23:16:34.677Z,12.30
2023-04-07T23:19:36.160Z,13.00
2023-04-07T23:22:37.528Z,13.02
2023-04-07T23:25:38.946Z,12.98
2023-04-07T23:28:40.395Z,12.00
2023-04-07T23:31:41.880Z,11.70
2023-04-07T23:34:43.315Z,12.73
2023-04-07T23:37:44.766Z,12.57
2023-04-07T23:40:46.171Z,12.32
2023-04-07T23:43:47.598Z,11.98
2023-04-07T23:46:49.050Z,11.40
2023-04-07T23:49:50.485Z,11.65
2023-04-07T23:52:51.900Z,11.77
2023-04-07T23:55:53.355Z,10.32
2023-04-07T23:58:54.771Z,11.57
